createdAt,value
2023-04-10T00:02:26.294Z,10.33
2023-04-10T00:04:53.790Z,10.83
2023-04-10T00:07:21.090Z,11.03
2023-04-10T00:09:48.486Z,16.23
2023-04-10T00:12:16.009Z,10.03
2023-04-10T00:14:43.251Z,10.37
2023-04-10T00:17:10.546Z,11.43
2023-04-10T00:19:37.891Z,10.23
2023-04-10T00:22:05.810Z,11.50
2023-04-10T00:24:34.133Z,12.00
2023-04-10T00:27:01.486Z,11.30
2023-04-10T00:29:28.790Z,11.27
2023-04-10T00:31:56.089Z,10.27
2023-04-10T00:34:24.265Z,9.97
2023-04-10T00:36:51.486Z,12.67
2023-04-10T00:39:19.287Z,11.00
2023-04-10T00:41:46.601Z,9.63
2023-04-10T00:44:13.813Z,11.37
2023-04-10T00:46:41.525Z,11.37
2023-04-10T00:49:09.610Z,11.63
2023-04-10T00:51:37.477Z,10.33
2023-04-10T00:54:04.862Z,11.37
2023-04-10T00:56:32.344Z,12.07
2023-04-10T00:59:00.287Z,10.47
2023-04-10T01:01:27.600Z,12.07
2023-04-10T01:03:56.052Z,11.70
2023-04-10T01:06:56.442Z,13.10
2023-04-10T01:09:46.383Z,11.57
2023-04-10T01:12:28.489Z,11.60
2023-04-10T01:15:20.979Z,10.93
2023-04-10T01:17:51.326Z,11.30
2023-04-10T01:20:23.470Z,12.70
2023-04-10T01:23:28.008Z,11.67
2023-04-10T01:26:06.682Z,11.23
2023-04-10T01:28:53.620Z,10.50
2023-04-10T01:31:28.452Z,11.90
2023-04-10T01:34:04.648Z,12.17
2023-04-10T01:36:37.829Z,12.03
2023-04-10T01:39:08.251Z,10.40
2023-04-10T01:41:36.974Z,11.57
2023-04-10T01:44:05.981Z,13.17
2023-04-10T01:46:33.939Z,11.90
2023-04-10T01:49:03.253Z,11.03
2023-04-10T01:51:31.462Z,11.43
2023-04-10T01:54:02.176Z,11.37
2023-04-10T01:56:30.129Z,12.07
2023-04-10T01:58:57.911Z,11.57
2023-04-10T02:01:29.541Z,11.73
2023-04-10T02:03:59.223Z,11.67
2023-04-10T02:06:34.488Z,11.13
2023-04-10T02:09:18.026Z,13.97
2023-04-10T02:11:58.361Z,10.70
2023-04-10T02:14:32.423Z,13.17
2023-04-10T02:17:02.598Z,10.73
2023-04-10T02:19:31.847Z,10.20
2023-04-10T02:21:59.526Z,10.20
2023-04-10T02:24:27.407Z,11.10
2023-04-10T02:26:54.661Z,11.10
2023-04-10T02:29:23.673Z,11.60
2023-04-10T02:31:50.982Z,11.10
2023-04-10T02:34:18.695Z,11.30
2023-04-10T02:36:45.910Z,9.67
2023-04-10T02:39:13.437Z,11.00
2023-04-10T02:41:48.709Z,11.03
2023-04-10T02:44:16.363Z,12.53
2023-04-10T02:46:44.349Z,11.93
2023-04-10T02:49:13.637Z,11.17
2023-04-10T02:51:40.976Z,11.17
2023-04-10T02:54:08.748Z,13.13
2023-04-10T02:56:39.821Z,11.57
2023-04-10T02:59:07.972Z,9.90
2023-04-10T03:01:35.824Z,10.90
2023-04-10T03:04:04.374Z,9.67
2023-04-10T03:06:36.961Z,11.00
2023-04-10T03:09:04.258Z,10.93
2023-04-10T03:11:34.263Z,12.37
2023-04-10T03:14:01.978Z,13.17
2023-04-10T03:16:29.443Z,10.70
2023-04-10T03:18:57.630Z,14.33
2023-04-10T03:21:25.072Z,12.33
2023-04-10T03:23:52.556Z,14.80
2023-04-10T03:26:20.866Z,11.17
2023-04-10T03:28:48.253Z,11.03
2023-04-10T03:31:15.660Z,12.33
2023-04-10T03:33:44.929Z,12.27
2023-04-10T03:36:12.473Z,12.37
2023-04-10T03:38:39.707Z,11.03
2023-04-10T03:41:09.492Z,11.63
2023-04-10T03:43:36.826Z,11.83
2023-04-10T03:46:05.677Z,11.80
2023-04-10T03:48:34.442Z,11.20
2023-04-10T03:51:02.290Z,11.53
2023-04-10T03:53:29.564Z,14.10
2023-04-10T03:55:56.854Z,11.83
2023-04-10T03:58:25.610Z,13.07
2023-04-10T04:00:55.414Z,11.97
2023-04-10T04:03:32.331Z,11.47
2023-04-10T04:05:59.737Z,10.27
2023-04-10T04:08:36.254Z,13.03
2023-04-10T04:11:12.981Z,10.67
2023-04-10T04:13:54.711Z,10.53
2023-04-10T04:16:40.573Z,12.47
2023-04-10T04:19:28.105Z,11.43
2023-04-10T04:22:21.795Z,11.93
2023-04-10T04:25:01.160Z,13.03
2023-04-10T04:27:46.986Z,12.57
2023-04-10T04:30:36.660Z,14.87
2023-04-10T04:33:24.120Z,11.20
2023-04-10T04:35:58.982Z,12.43
2023-04-10T04:38:38.492Z,12.40
2023-04-10T04:41:32.177Z,12.43
2023-04-10T04:44:22.361Z,13.20
2023-04-10T04:47:15.681Z,11.77
2023-04-10T04:50:01.353Z,13.50
2023-04-10T04:52:51.418Z,14.27
2023-04-10T04:55:26.299Z,13.47
2023-04-10T04:57:57.377Z,12.47
2023-04-10T05:00:31.747Z,12.40
2023-04-10T05:03:17.727Z,12.03
2023-04-10T05:06:14.271Z,13.40
2023-04-10T05:08:55.126Z,13.27
2023-04-10T05:11:46.192Z,13.00
2023-04-10T05:14:39.540Z,13.30
2023-04-10T05:17:18.609Z,12.67
2023-04-10T05:20:09.885Z,11.80
2023-04-10T05:22:45.806Z,11.73
2023-04-10T05:25:28.090Z,10.07
2023-04-10T05:28:11.885Z,10.95
2023-04-10T05:31:08.739Z,10.50
2023-04-10T05:33:39.051Z,11.02
2023-04-10T05:36:29.356Z,11.95
2023-04-10T05:39:23.134Z,10.60
2023-04-10T05:42:10.026Z,11.77
2023-04-10T05:44:50.828Z,10.73
2023-04-10T05:47:41.559Z,10.70
2023-04-10T05:50:19.172Z,10.98
2023-04-10T05:53:05.418Z,10.38
2023-04-10T05:55:44.734Z,10.27
2023-04-10T05:58:38.309Z,12.32
2023-04-10T06:01:14.683Z,12.15
2023-04-10T06:03:51.296Z,12.48
2023-04-10T06:06:21.266Z,12.07
2023-04-10T06:08:48.613Z,12.85
2023-04-10T06:11:16.033Z,12.52
2023-04-10T06:13:47.873Z,12.23
2023-04-10T06:16:16.378Z,12.40
2023-04-10T06:18:45.365Z,12.25
2023-04-10T06:21:12.698Z,13.23
2023-04-10T06:23:40.819Z,13.15
2023-04-10T06:26:08.403Z,12.50
2023-04-10T06:28:35.831Z,12.77
2023-04-10T06:31:07.167Z,12.55
2023-04-10T06:33:37.104Z,13.90
2023-04-10T06:36:07.120Z,13.75
2023-04-10T06:38:40.444Z,14.85
2023-04-10T06:41:08.492Z,12.50
2023-04-10T06:43:37.896Z,13.23
2023-04-10T06:46:06.018Z,12.52
2023-04-10T06:48:33.681Z,13.88
2023-04-10T06:51:01.063Z,12.25
2023-04-10T06:53:28.525Z,12.63
2023-04-10T06:55:56.781Z,12.73
2023-04-10T06:58:24.505Z,14.15
2023-04-10T07:00:51.997Z,13.85
2023-04-10T07:03:19.601Z,12.35
2023-04-10T07:05:47.012Z,13.10
2023-04-10T07:08:14.329Z,12.75
2023-04-10T07:10:41.721Z,13.38
2023-04-10T07:13:08.986Z,14.18
2023-04-10T07:15:36.386Z,14.27
2023-04-10T07:18:03.796Z,12.80
2023-04-10T07:20:31.104Z,12.95
2023-04-10T07:22:58.340Z,13.15
2023-04-10T07:25:25.818Z,13.35
2023-04-10T07:27:53.241Z,13.85
2023-04-10T07:30:20.719Z,13.93
2023-04-10T07:32:48.250Z,12.85
2023-04-10T07:35:15.753Z,13.23
2023-04-10T07:37:44.105Z,13.25
2023-04-10T07:40:11.956Z,13.32
2023-04-10T07:42:39.372Z,13.57
2023-04-10T07:45:07.269Z,13.18
2023-04-10T07:47:34.649Z,12.50
2023-04-10T07:50:02.014Z,14.25
2023-04-10T07:52:29.258Z,12.27
2023-04-10T07:54:56.727Z,12.65
2023-04-10T07:57:24.668Z,13.25
2023-04-10T07:59:52.014Z,12.43
2023-04-10T08:02:19.474Z,12.75
2023-04-10T08:04:47.216Z,13.80
2023-04-10T08:07:14.673Z,14.35
2023-04-10T08:09:41.913Z,12.02
2023-04-10T08:12:09.161Z,13.55
2023-04-10T08:14:36.605Z,12.05
2023-04-10T08:17:04.122Z,11.75
2023-04-10T08:19:31.584Z,11.98
2023-04-10T08:21:58.946Z,11.57
2023-04-10T08:24:26.228Z,11.05
2023-04-10T08:26:53.603Z,13.48
2023-04-10T08:31:49.636Z,13.00
2023-04-10T08:34:17.002Z,15.23
2023-04-10T08:36:44.335Z,13.10
2023-04-10T08:39:11.675Z,11.70
2023-04-10T08:41:41.358Z,13.07
2023-04-10T08:44:08.775Z,10.85
2023-04-10T08:46:40.104Z,11.60
2023-04-10T08:49:10.666Z,12.85
2023-04-10T08:51:48.688Z,11.77
2023-04-10T08:54:25.492Z,9.60
2023-04-10T08:56:55.519Z,9.80
2023-04-10T08:59:23.095Z,10.95
2023-04-10T09:01:50.606Z,10.15
2023-04-10T09:04:18.452Z,11.07
2023-04-10T09:06:46.187Z,10.75
2023-04-10T09:09:13.570Z,10.98
2023-04-10T09:11:53.967Z,11.35
2023-04-10T09:14:22.757Z,9.32
2023-04-10T09:16:51.941Z,10.50
2023-04-10T09:19:31.762Z,9.98
2023-04-10T09:21:59.522Z,10.93
2023-04-10T09:24:27.412Z,10.05
2023-04-10T09:26:55.326Z,11.00
2023-04-10T09:29:22.669Z,9.73
2023-04-10T09:31:51.322Z,9.25
2023-04-10T09:34:22.259Z,10.25
2023-04-10T09:36:58.067Z,9.43
2023-04-10T09:39:36.165Z,8.65
2023-04-10T09:42:03.759Z,9.25
2023-04-10T09:44:37.333Z,10.32
2023-04-10T09:47:14.607Z,10.27
2023-04-10T09:49:53.406Z,8.93
2023-04-10T09:52:28.804Z,8.93
2023-04-10T09:55:01.394Z,10.45
2023-04-10T09:57:30.853Z,8.73
2023-04-10T10:00:00.444Z,8.32
2023-04-10T10:02:33.945Z,8.40
2023-04-10T10:05:04.050Z,10.07
2023-04-10T10:07:31.682Z,9.25
2023-04-10T10:10:00.623Z,11.60
2023-04-10T10:12:45.908Z,9.75
2023-04-10T10:15:19.637Z,8.50
2023-04-10T10:18:11.560Z,9.45
2023-04-10T10:20:41.985Z,9.80
2023-04-10T10:23:09.512Z,9.77
2023-04-10T10:25:37.689Z,8.73
2023-04-10T10:28:05.899Z,9.93
2023-04-10T10:30:34.317Z,9.88
2023-04-10T10:33:06.608Z,9.05
2023-04-10T10:35:35.983Z,9.20
2023-04-10T10:38:04.656Z,10.07
2023-04-10T10:40:53.589Z,9.88
2023-04-10T10:43:37.539Z,8.82
2023-04-10T10:46:09.383Z,9.13
2023-04-10T10:48:36.889Z,9.70
2023-04-10T10:51:04.351Z,9.25
2023-04-10T10:53:42.673Z,7.88
2023-04-10T10:56:37.081Z,8.77
2023-04-10T10:59:04.559Z,8.25
2023-04-10T11:01:32.015Z,8.15
2023-04-10T11:04:00.234Z,7.90
2023-04-10T11:06:51.325Z,7.82
2023-04-10T11:09:54.435Z,7.72
2023-04-10T11:12:25.381Z,6.57
2023-04-10T11:15:00.337Z,7.35
2023-04-10T11:17:47.774Z,6.75
2023-04-10T11:20:15.654Z,6.20
2023-04-10T11:23:12.704Z,7.18
2023-04-10T11:25:54.610Z,6.80
2023-04-10T11:28:35.987Z,4.88
2023-04-10T11:31:20.667Z,5.72
2023-04-10T11:33:54.394Z,7.22
2023-04-10T11:36:21.788Z,5.32
2023-04-10T11:39:09.635Z,5.90
2023-04-10T11:41:39.566Z,4.88
2023-04-10T11:44:10.385Z,4.82
2023-04-10T11:46:39.437Z,5.82
2023-04-10T11:49:09.581Z,4.95
2023-04-10T11:51:38.686Z,4.57
2023-04-10T11:54:22.070Z,5.72
2023-04-10T11:57:05.969Z,5.78
2023-04-10T11:59:33.976Z,5.45
2023-04-10T12:02:08.893Z,5.85
2023-04-10T12:04:36.648Z,4.90
2023-04-10T12:07:04.264Z,5.50
2023-04-10T12:09:31.853Z,5.90
2023-04-10T12:12:09.193Z,5.68
2023-04-10T12:14:39.434Z,5.72
2023-04-10T12:17:08.573Z,5.20
2023-04-10T12:19:38.843Z,5.35
2023-04-10T12:22:07.514Z,6.18
2023-04-10T12:24:46.473Z,4.93
2023-04-10T12:27:21.672Z,5.07
2023-04-10T12:29:51.216Z,5.03
2023-04-10T12:32:19.275Z,4.60
2023-04-10T12:34:57.151Z,5.88
2023-04-10T12:37:49.483Z,5.07
2023-04-10T12:40:18.101Z,4.50
2023-04-10T12:42:45.666Z,5.72
2023-04-10T12:45:14.445Z,5.13
2023-04-10T12:47:53.710Z,5.70
2023-04-10T12:50:21.202Z,4.82
2023-04-10T12:53:08.035Z,5.15
2023-04-10T12:55:35.513Z,6.15
2023-04-10T12:58:21.367Z,4.38
2023-04-10T13:00:49.063Z,4.47
2023-04-10T13:03:16.518Z,4.35
2023-04-10T13:05:44.835Z,4.75
2023-04-10T13:08:12.217Z,4.93
2023-04-10T13:10:40.527Z,5.13
2023-04-10T13:13:08.305Z,4.93
2023-04-10T13:15:35.686Z,4.50
2023-04-10T13:18:05.694Z,4.35
2023-04-10T13:20:38.995Z,4.32
2023-04-10T13:23:07.853Z,3.65
2023-04-10T13:25:39.822Z,4.25
2023-04-10T13:28:11.442Z,3.95
2023-04-10T13:30:41.248Z,4.03
2023-04-10T13:33:09.620Z,4.35
2023-04-10T13:35:37.230Z,4.43
2023-04-10T13:38:04.782Z,4.25
2023-04-10T13:40:32.114Z,3.38
2023-04-10T13:42:59.396Z,3.70
2023-04-10T13:45:26.833Z,4.72
2023-04-10T13:47:54.093Z,4.15
2023-04-10T13:50:21.414Z,4.82
2023-04-10T13:52:50.606Z,4.78
2023-04-10T13:55:19.542Z,4.97
2023-04-10T13:57:46.925Z,4.30
2023-04-10T14:00:14.867Z,3.85
2023-04-10T14:02:43.043Z,4.63
2023-04-10T14:05:10.724Z,4.57
2023-04-10T14:07:38.136Z,4.38
2023-04-10T14:10:06.250Z,4.30
2023-04-10T14:12:35.258Z,4.60
2023-04-10T14:15:03.553Z,4.50
2023-04-10T14:17:31.001Z,4.55
2023-04-10T14:19:58.258Z,5.45
2023-04-10T14:22:25.685Z,4.45
2023-04-10T14:25:01.744Z,4.38
2023-04-10T14:27:37.020Z,4.68
2023-04-10T14:30:04.966Z,5.32
2023-04-10T14:32:32.549Z,4.72
2023-04-10T14:34:59.855Z,5.75
2023-04-10T14:37:27.092Z,4.72
2023-04-10T14:39:54.447Z,4.18
2023-04-10T14:42:23.634Z,4.82
2023-04-10T14:44:51.091Z,4.25
2023-04-10T14:47:18.481Z,3.97
2023-04-10T14:49:45.748Z,4.82
2023-04-10T14:52:13.098Z,7.03
2023-04-10T14:54:40.383Z,4.20
2023-04-10T14:57:08.016Z,4.32
2023-04-10T14:59:35.589Z,4.53
2023-04-10T15:02:02.846Z,3.53
2023-04-10T15:04:30.271Z,4.47
2023-04-10T15:06:57.678Z,4.35
2023-04-10T15:09:25.248Z,4.85
2023-04-10T15:11:52.563Z,3.58
2023-04-10T15:14:20.205Z,4.55
2023-04-10T15:16:47.855Z,3.25
2023-04-10T15:19:15.386Z,4.30
2023-04-10T15:21:42.756Z,3.25
2023-04-10T15:24:10.267Z,3.03
2023-04-10T15:26:43.231Z,3.42
2023-04-10T15:29:10.897Z,4.50
2023-04-10T15:31:38.163Z,3.95
2023-04-10T15:34:05.716Z,3.53
2023-04-10T15:36:33.299Z,3.70
2023-04-10T15:39:02.718Z,4.63
2023-04-10T15:41:31.734Z,4.15
2023-04-10T15:43:59.282Z,4.13
2023-04-10T15:46:27.195Z,4.35
2023-04-10T15:48:54.743Z,3.92
2023-04-10T15:51:22.077Z,4.35
2023-04-10T15:53:49.309Z,4.47
2023-04-10T15:56:17.047Z,4.32
2023-04-10T15:58:44.479Z,4.18
2023-04-10T16:01:11.917Z,4.45
2023-04-10T16:03:39.321Z,4.13
2023-04-10T16:06:07.530Z,4.47
2023-04-10T16:08:35.422Z,4.38
2023-04-10T16:11:02.892Z,5.15
2023-04-10T16:13:30.225Z,4.10
2023-04-10T16:15:57.723Z,4.40
2023-04-10T16:18:25.092Z,5.35
2023-04-10T16:20:52.451Z,4.28
2023-04-10T16:23:19.798Z,4.90
2023-04-10T16:25:47.205Z,4.03
2023-04-10T16:28:14.605Z,4.05
2023-04-10T16:30:41.936Z,4.22
2023-04-10T16:33:09.373Z,5.40
2023-04-10T16:35:36.803Z,4.72
2023-04-10T16:38:04.201Z,5.18
2023-04-10T16:40:32.916Z,4.43
2023-04-10T16:43:01.702Z,4.68
2023-04-10T16:45:29.178Z,3.58
2023-04-10T16:47:56.569Z,4.90
2023-04-10T16:50:24.216Z,4.25
2023-04-10T16:52:51.736Z,4.50
2023-04-10T16:55:19.281Z,4.63
2023-04-10T16:57:46.651Z,4.43
2023-04-10T17:00:14.276Z,4.10
2023-04-10T17:02:42.786Z,4.43
2023-04-10T17:05:11.402Z,4.38
2023-04-10T17:07:38.819Z,4.10
2023-04-10T17:10:06.601Z,5.00
2023-04-10T17:12:33.999Z,4.85
2023-04-10T17:15:01.551Z,3.90
2023-04-10T17:17:29.117Z,4.55
2023-04-10T17:19:56.713Z,4.30
2023-04-10T17:22:24.170Z,3.45
2023-04-10T17:24:51.638Z,4.15
2023-04-10T17:27:19.093Z,4.50
2023-04-10T17:29:46.330Z,3.50
2023-04-10T17:32:13.637Z,5.10
2023-04-10T17:34:40.951Z,4.03
2023-04-10T17:37:08.333Z,4.40
2023-04-10T17:39:35.754Z,4.45
2023-04-10T17:42:03.265Z,5.28
2023-04-10T17:44:30.984Z,4.13
2023-04-10T17:46:58.399Z,4.20
2023-04-10T17:49:26.198Z,6.05
2023-04-10T17:51:53.577Z,5.07
2023-04-10T17:54:20.824Z,4.90
2023-04-10T17:56:48.210Z,3.97
2023-04-10T17:59:15.437Z,5.28
2023-04-10T18:01:42.832Z,4.45
2023-04-10T18:04:10.290Z,4.60
2023-04-10T18:06:37.799Z,4.50
2023-04-10T18:09:05.167Z,4.70
2023-04-10T18:11:32.796Z,5.00
2023-04-10T18:14:00.511Z,5.07
2023-04-10T18:16:27.955Z,5.57
2023-04-10T18:18:55.543Z,5.18
2023-04-10T18:21:23.114Z,4.90
2023-04-10T18:23:50.358Z,4.72
2023-04-10T18:26:20.747Z,4.85
2023-04-10T18:28:48.215Z,5.70
2023-04-10T18:31:16.604Z,4.63
2023-04-10T18:33:44.072Z,5.22
2023-04-10T18:36:13.800Z,5.45
2023-04-10T18:38:43.669Z,10.57
2023-04-10T18:41:10.926Z,6.63
2023-04-10T18:43:39.032Z,6.28
2023-04-10T18:46:06.854Z,5.45
2023-04-10T18:48:35.953Z,5.55
2023-04-10T18:51:03.595Z,6.00
2023-04-10T18:53:31.084Z,4.45
2023-04-10T18:55:58.512Z,5.22
2023-04-10T18:58:25.961Z,4.65
2023-04-10T19:00:53.733Z,4.53
2023-04-10T19:03:21.513Z,5.43
2023-04-10T19:05:49.268Z,4.00
2023-04-10T19:08:17.079Z,5.13
2023-04-10T19:10:44.453Z,4.72
2023-04-10T19:13:12.396Z,4.55
2023-04-10T19:15:45.983Z,5.07
2023-04-10T19:18:15.043Z,4.63
2023-04-10T19:20:50.916Z,6.30
2023-04-10T19:23:21.100Z,5.03
2023-04-10T19:25:52.937Z,4.95
2023-04-10T19:28:20.428Z,4.70
2023-04-10T19:30:47.953Z,4.32
2023-04-10T19:33:15.595Z,5.03
2023-04-10T19:35:42.911Z,6.22
2023-04-10T19:38:10.518Z,5.25
2023-04-10T19:40:38.062Z,4.05
2023-04-10T19:43:05.420Z,5.22
2023-04-10T19:45:36.900Z,4.10
2023-04-10T19:48:05.091Z,3.75
2023-04-10T19:50:32.928Z,4.28
2023-04-10T19:53:00.437Z,5.22
2023-04-10T19:55:27.827Z,4.85
2023-04-10T19:57:55.156Z,4.60
2023-04-10T20:00:22.483Z,4.55
2023-04-10T20:02:49.833Z,4.35
2023-04-10T20:05:17.355Z,5.28
2023-04-10T20:07:44.633Z,4.53
2023-04-10T20:10:12.222Z,4.82
2023-04-10T20:12:39.484Z,4.80
2023-04-10T20:15:07.566Z,4.57
2023-04-10T20:17:35.578Z,4.32
2023-04-10T20:20:03.449Z,4.38
2023-04-10T20:22:30.810Z,5.40
2023-04-10T20:24:58.330Z,5.13
2023-04-10T20:27:25.677Z,5.00
2023-04-10T20:29:52.971Z,6.25
2023-04-10T20:32:20.780Z,4.88
2023-04-10T20:34:48.027Z,4.35
2023-04-10T20:37:21.426Z,5.40
2023-04-10T20:39:49.139Z,5.22
2023-04-10T20:42:17.102Z,4.35
2023-04-10T20:44:44.437Z,5.15
2023-04-10T20:47:11.780Z,5.07
2023-04-10T20:49:39.113Z,4.72
2023-04-10T20:52:06.834Z,4.90
2023-04-10T20:54:34.234Z,5.47
2023-04-10T20:57:01.843Z,5.25
2023-04-10T20:59:29.450Z,5.47
2023-04-10T21:01:57.661Z,5.32
2023-04-10T21:04:25.321Z,5.13
2023-04-10T21:06:52.929Z,5.53
2023-04-10T21:09:20.496Z,4.70
2023-04-10T21:11:47.764Z,5.53
2023-04-10T21:14:15.191Z,4.93
2023-04-10T21:16:42.789Z,4.35
2023-04-10T21:19:10.387Z,5.18
2023-04-10T21:21:37.702Z,4.75
2023-04-10T21:24:05.332Z,5.75
2023-04-10T21:26:32.581Z,5.95
2023-04-10T21:29:00.024Z,4.45
2023-04-10T21:31:27.415Z,4.57
2023-04-10T21:33:54.815Z,5.50
2023-04-10T21:36:22.098Z,5.35
2023-04-10T21:38:49.284Z,6.35
2023-04-10T21:41:16.689Z,4.88
2023-04-10T21:43:44.130Z,4.93
2023-04-10T21:46:11.526Z,4.85
2023-04-10T21:48:39.008Z,4.40
2023-04-10T21:51:06.508Z,4.55
2023-04-10T21:53:33.794Z,5.60
2023-04-10T21:56:00.974Z,5.00
2023-04-10T21:58:28.410Z,5.95
2023-04-10T22:00:55.685Z,5.82
2023-04-10T22:03:24.061Z,5.43
2023-04-10T22:05:51.490Z,5.15
2023-04-10T22:08:20.058Z,6.00
2023-04-10T22:10:47.943Z,4.95
2023-04-10T22:13:27.442Z,6.03
2023-04-10T22:15:59.823Z,5.82
2023-04-10T22:18:27.242Z,5.70
2023-04-10T22:20:54.473Z,5.90
2023-04-10T22:23:21.805Z,6.50
2023-04-10T22:25:49.093Z,5.32
2023-04-10T22:28:16.535Z,5.15
2023-04-10T22:30:43.969Z,4.78
2023-04-10T22:33:12.029Z,5.43
2023-04-10T22:35:39.417Z,5.43
2023-04-10T22:38:07.645Z,5.22
2023-04-10T22:40:35.335Z,5.78
2023-04-10T22:43:03.011Z,6.13
2023-04-10T22:45:30.463Z,5.85
2023-04-10T22:47:57.926Z,6.30
2023-04-10T22:50:25.406Z,5.30
2023-04-10T22:52:52.608Z,5.88
2023-04-10T22:55:19.931Z,7.68
2023-04-10T22:57:49.258Z,6.30
2023-04-10T23:00:16.653Z,5.50
2023-04-10T23:02:44.110Z,5.88
2023-04-10T23:05:11.462Z,6.90
2023-04-10T23:07:38.646Z,6.70
2023-04-10T23:10:06.604Z,6.47
2023-04-10T23:12:33.794Z,4.97
2023-04-10T23:15:01.180Z,6.32
2023-04-10T23:17:28.373Z,6.38
2023-04-10T23:19:55.737Z,6.30
2023-04-10T23:22:23.153Z,6.38
2023-04-10T23:24:56.927Z,6.68
2023-04-10T23:27:24.169Z,5.45
2023-04-10T23:29:51.418Z,5.20
2023-04-10T23:32:18.716Z,5.78
2023-04-10T23:34:45.925Z,6.32
2023-04-10T23:37:13.319Z,5.50
2023-04-10T23:39:40.579Z,5.65
2023-04-10T23:42:07.857Z,5.82
2023-04-10T23:44:35.663Z,5.43
2023-04-10T23:47:03.252Z,5.45
2023-04-10T23:49:30.600Z,8.13
2023-04-10T23:51:58.061Z,5.45
2023-04-10T23:54:25.391Z,5.45
2023-04-10T23:56:52.721Z,6.13
2023-04-10T23:59:20.007Z,5.32
